sensor_id;sensor_type;location;lat;lon;timestamp;temperature;humidity
6792;DHT22;3433;48.730;9.108;2023-05-07T00:01:33;15.10;99.90
6792;DHT22;3433;48.730;9.108;2023-05-07T00:04:25;15.10;99.90
6792;DHT22;3433;48.730;9.108;2023-05-07T00:06:53;15.20;99.90
6792;DHT22;3433;48.730;9.108;2023-05-07T00:09:20;15.20;99.90
6792;DHT22;3433;48.730;9.108;2023-05-07T00:11:47;15.20;99.90
6792;DHT22;3433;48.730;9.108;2023-05-07T00:14:14;15.20;99.90
6792;DHT22;3433;48.730;9.108;2023-05-07T00:16:41;15.10;99.90
6792;DHT22;3433;48.730;9.108;2023-05-07T00:19:08;15.10;99.90
6792;DHT22;3433;48.730;9.108;2023-05-07T00:21:36;15.10;99.90
6792;DHT22;3433;48.730;9.108;2023-05-07T00:24:03;15.10;99.90
6792;DHT22;3433;48.730;9.108;2023-05-07T00:26:30;15.20;99.90
6792;DHT22;3433;48.730;9.108;2023-05-07T00:28:57;15.20;99.90
6792;DHT22;3433;48.730;9.108;2023-05-07T00:31:24;15.10;99.90
6792;DHT22;3433;48.730;9.108;2023-05-07T00:33:51;15.20;99.90
6792;DHT22;3433;48.730;9.108;2023-05-07T00:36:18;15.20;99.90
6792;DHT22;3433;48.730;9.108;2023-05-07T00:38:46;15.10;99.90
6792;DHT22;3433;48.730;9.108;2023-05-07T00:41:13;15.10;99.90
6792;DHT22;3433;48.730;9.108;2023-05-07T00:43:40;15.10;99.90
6792;DHT22;3433;48.730;9.108;2023-05-07T00:46:07;15.10;99.90
6792;DHT22;3433;48.730;9.108;2023-05-07T00:48:34;15.10;99.90
6792;DHT22;3433;48.730;9.108;2023-05-07T00:51:01;15.20;99.90
6792;DHT22;3433;48.730;9.108;2023-05-07T00:53:28;15.20;99.90
6792;DHT22;3433;48.730;9.108;2023-05-07T00:55:57;15.20;99.90
6792;DHT22;3433;48.730;9.108;2023-05-07T00:58:24;15.10;99.90
6792;DHT22;3433;48.730;9.108;2023-05-07T01:00:51;15.10;99.90
6792;DHT22;3433;48.730;9.108;2023-05-07T01:03:18;15.10;99.90
6792;DHT22;3433;48.730;9.108;2023-05-07T01:05:46;15.10;99.90
6792;DHT22;3433;48.730;9.108;2023-05-07T01:08:15;15.10;99.90
6792;DHT22;3433;48.730;9.108;2023-05-07T01:10:42;15.10;99.90
6792;DHT22;3433;48.730;9.108;2023-05-07T01:13:12;15.00;99.90
6792;DHT22;3433;48.730;9.108;2023-05-07T01:15:40;15.00;99.90
6792;DHT22;3433;48.730;9.108;2023-05-07T01:18:07;15.00;99.90
6792;DHT22;3433;48.730;9.108;2023-05-07T01:20:34;15.10;99.90
6792;DHT22;3433;48.730;9.108;2023-05-07T01:23:03;15.10;99.90
6792;DHT22;3433;48.730;9.108;2023-05-07T01:25:30;15.00;99.90
6792;DHT22;3433;48.730;9.108;2023-05-07T01:27:57;15.00;99.90
6792;DHT22;3433;48.730;9.108;2023-05-07T01:30:25;15.00;99.90
6792;DHT22;3433;48.730;9.108;2023-05-07T01:32:58;14.90;99.90
6792;DHT22;3433;48.730;9.108;2023-05-07T01:35:30;15.00;99.90
6792;DHT22;3433;48.730;9.108;2023-05-07T01:37:58;14.90;99.90
6792;DHT22;3433;48.730;9.108;2023-05-07T01:40:27;14.90;99.90
6792;DHT22;3433;48.730;9.108;2023-05-07T01:42:54;14.90;99.90
6792;DHT22;3433;48.730;9.108;2023-05-07T01:45:21;14.90;99.90
6792;DHT22;3433;48.730;9.108;2023-05-07T01:47:49;14.90;99.90
6792;DHT22;3433;48.730;9.108;2023-05-07T01:50:17;14.90;99.90
6792;DHT22;3433;48.730;9.108;2023-05-07T01:52:45;14.90;99.90
6792;DHT22;3433;48.730;9.108;2023-05-07T01:55:12;14.90;99.90
6792;DHT22;3433;48.730;9.108;2023-05-07T01:57:40;14.90;99.90
6792;DHT22;3433;48.730;9.108;2023-05-07T02:00:08;14.80;99.90
6792;DHT22;3433;48.730;9.108;2023-05-07T02:02:35;14.80;99.90
6792;DHT22;3433;48.730;9.108;2023-05-07T02:05:04;14.80;99.90
6792;DHT22;3433;48.730;9.108;2023-05-07T02:07:31;14.80;99.90
6792;DHT22;3433;48.730;9.108;2023-05-07T02:09:58;14.80;99.90
6792;DHT22;3433;48.730;9.108;2023-05-07T02:12:25;14.80;99.90
6792;DHT22;3433;48.730;9.108;2023-05-07T02:14:53;14.80;99.90
6792;DHT22;3433;48.730;9.108;2023-05-07T02:17:20;14.80;99.90
6792;DHT22;3433;48.730;9.108;2023-05-07T02:19:47;14.80;99.90
6792;DHT22;3433;48.730;9.108;2023-05-07T02:22:14;14.80;99.90
6792;DHT22;3433;48.730;9.108;2023-05-07T02:24:41;14.70;99.90
6792;DHT22;3433;48.730;9.108;2023-05-07T02:27:07;14.80;99.90
6792;DHT22;3433;48.730;9.108;2023-05-07T02:29:34;14.80;99.90
6792;DHT22;3433;48.730;9.108;2023-05-07T02:32:03;14.80;99.90
6792;DHT22;3433;48.730;9.108;2023-05-07T02:34:30;14.80;99.90
6792;DHT22;3433;48.730;9.108;2023-05-07T02:36:57;14.80;99.90
6792;DHT22;3433;48.730;9.108;2023-05-07T02:39:24;14.70;99.90
6792;DHT22;3433;48.730;9.108;2023-05-07T02:41:51;14.70;99.90
6792;DHT22;3433;48.730;9.108;2023-05-07T02:44:18;14.70;99.90
6792;DHT22;3433;48.730;9.108;2023-05-07T02:46:44;14.70;99.90
6792;DHT22;3433;48.730;9.108;2023-05-07T02:49:13;14.70;99.90
6792;DHT22;3433;48.730;9.108;2023-05-07T02:51:40;14.70;99.90
6792;DHT22;3433;48.730;9.108;2023-05-07T02:54:06;14.70;99.90
6792;DHT22;3433;48.730;9.108;2023-05-07T02:56:33;14.60;99.90
6792;DHT22;3433;48.730;9.108;2023-05-07T02:59:00;14.60;99.90
6792;DHT22;3433;48.730;9.108;2023-05-07T03:01:27;14.60;99.90
6792;DHT22;3433;48.730;9.108;2023-05-07T03:03:54;14.60;99.90
6792;DHT22;3433;48.730;9.108;2023-05-07T03:06:23;14.60;99.90
6792;DHT22;3433;48.730;9.108;2023-05-07T03:08:50;14.50;99.90
6792;DHT22;3433;48.730;9.108;2023-05-07T03:11:17;14.50;99.90
6792;DHT22;3433;48.730;9.108;2023-05-07T03:13:43;14.50;99.90
6792;DHT22;3433;48.730;9.108;2023-05-07T03:16:10;14.50;99.90
6792;DHT22;3433;48.730;9.108;2023-05-07T03:18:37;14.50;99.90
6792;DHT22;3433;48.730;9.108;2023-05-07T03:21:04;14.50;99.90
6792;DHT22;3433;48.730;9.108;2023-05-07T03:23:32;14.40;99.90
6792;DHT22;3433;48.730;9.108;2023-05-07T03:25:59;14.40;99.90
6792;DHT22;3433;48.730;9.108;2023-05-07T03:28:26;14.40;99.90
6792;DHT22;3433;48.730;9.108;2023-05-07T03:30:53;14.30;99.90
6792;DHT22;3433;48.730;9.108;2023-05-07T03:33:20;14.30;99.90
6792;DHT22;3433;48.730;9.108;2023-05-07T03:35:47;14.30;99.90
6792;DHT22;3433;48.730;9.108;2023-05-07T03:38:14;14.30;99.90
6792;DHT22;3433;48.730;9.108;2023-05-07T03:40:42;14.20;99.90
6792;DHT22;3433;48.730;9.108;2023-05-07T03:43:09;14.20;99.90
6792;DHT22;3433;48.730;9.108;2023-05-07T03:45:36;14.20;99.90
6792;DHT22;3433;48.730;9.108;2023-05-07T03:48:03;14.10;99.90
6792;DHT22;3433;48.730;9.108;2023-05-07T03:50:30;14.10;99.90
6792;DHT22;3433;48.730;9.108;2023-05-07T03:52:57;14.10;99.90
6792;DHT22;3433;48.730;9.108;2023-05-07T03:55:24;14.10;99.90
6792;DHT22;3433;48.730;9.108;2023-05-07T03:57:52;14.00;99.90
6792;DHT22;3433;48.730;9.108;2023-05-07T04:00:19;14.00;99.90
6792;DHT22;3433;48.730;9.108;2023-05-07T04:02:47;14.00;99.90
6792;DHT22;3433;48.730;9.108;2023-05-07T04:05:14;14.00;99.90
6792;DHT22;3433;48.730;9.108;2023-05-07T04:07:41;13.90;99.90
6792;DHT22;3433;48.730;9.108;2023-05-07T04:10:09;13.90;99.90
6792;DHT22;3433;48.730;9.108;2023-05-07T04:12:36;13.90;99.90
6792;DHT22;3433;48.730;9.108;2023-05-07T04:15:05;13.90;99.90
6792;DHT22;3433;48.730;9.108;2023-05-07T04:17:32;13.90;99.90
6792;DHT22;3433;48.730;9.108;2023-05-07T04:19:59;13.90;99.90
6792;DHT22;3433;48.730;9.108;2023-05-07T04:22:26;13.90;99.90
6792;DHT22;3433;48.730;9.108;2023-05-07T04:24:52;13.90;99.90
6792;DHT22;3433;48.730;9.108;2023-05-07T04:27:19;13.80;99.90
6792;DHT22;3433;48.730;9.108;2023-05-07T04:29:46;13.90;99.90
6792;DHT22;3433;48.730;9.108;2023-05-07T04:32:15;13.80;99.90
6792;DHT22;3433;48.730;9.108;2023-05-07T04:34:41;13.90;99.90
6792;DHT22;3433;48.730;9.108;2023-05-07T04:37:08;13.90;99.90
6792;DHT22;3433;48.730;9.108;2023-05-07T04:39:35;13.90;99.90
6792;DHT22;3433;48.730;9.108;2023-05-07T04:42:03;13.90;99.90
6792;DHT22;3433;48.730;9.108;2023-05-07T04:44:29;13.90;99.90
6792;DHT22;3433;48.730;9.108;2023-05-07T04:46:57;13.90;99.90
6792;DHT22;3433;48.730;9.108;2023-05-07T04:49:25;13.90;99.90
6792;DHT22;3433;48.730;9.108;2023-05-07T04:51:52;13.90;99.90
6792;DHT22;3433;48.730;9.108;2023-05-07T04:54:19;13.90;99.90
6792;DHT22;3433;48.730;9.108;2023-05-07T04:56:46;13.90;99.90
6792;DHT22;3433;48.730;9.108;2023-05-07T04:59:13;13.90;99.90
6792;DHT22;3433;48.730;9.108;2023-05-07T05:01:40;13.90;99.90
6792;DHT22;3433;48.730;9.108;2023-05-07T05:04:07;13.90;99.90
6792;DHT22;3433;48.730;9.108;2023-05-07T05:06:35;13.90;99.90
6792;DHT22;3433;48.730;9.108;2023-05-07T05:09:02;13.90;99.90
6792;DHT22;3433;48.730;9.108;2023-05-07T05:11:30;13.90;99.90
6792;DHT22;3433;48.730;9.108;2023-05-07T05:13:58;14.00;99.90
6792;DHT22;3433;48.730;9.108;2023-05-07T05:16:26;14.00;99.90
6792;DHT22;3433;48.730;9.108;2023-05-07T05:18:53;14.10;99.90
6792;DHT22;3433;48.730;9.108;2023-05-07T05:21:20;14.10;99.90
6792;DHT22;3433;48.730;9.108;2023-05-07T05:23:52;14.20;99.90
6792;DHT22;3433;48.730;9.108;2023-05-07T05:26:19;14.30;99.90
6792;DHT22;3433;48.730;9.108;2023-05-07T05:28:46;14.40;99.90
6792;DHT22;3433;48.730;9.108;2023-05-07T05:31:13;14.50;99.90
6792;DHT22;3433;48.730;9.108;2023-05-07T05:33:40;14.60;99.90
6792;DHT22;3433;48.730;9.108;2023-05-07T05:36:09;14.60;99.90
6792;DHT22;3433;48.730;9.108;2023-05-07T05:38:37;14.80;99.90
6792;DHT22;3433;48.730;9.108;2023-05-07T05:41:05;14.90;99.90
6792;DHT22;3433;48.730;9.108;2023-05-07T05:43:32;15.00;99.90
6792;DHT22;3433;48.730;9.108;2023-05-07T05:45:59;15.20;99.90
6792;DHT22;3433;48.730;9.108;2023-05-07T05:48:26;15.40;99.90
6792;DHT22;3433;48.730;9.108;2023-05-07T05:50:53;15.60;99.90
6792;DHT22;3433;48.730;9.108;2023-05-07T05:53:20;15.70;99.90
6792;DHT22;3433;48.730;9.108;2023-05-07T05:55:47;15.80;99.90
6792;DHT22;3433;48.730;9.108;2023-05-07T05:58:15;16.00;99.90
6792;DHT22;3433;48.730;9.108;2023-05-07T06:00:42;16.20;99.90
6792;DHT22;3433;48.730;9.108;2023-05-07T06:03:12;16.40;99.90
6792;DHT22;3433;48.730;9.108;2023-05-07T06:05:39;16.60;99.90
6792;DHT22;3433;48.730;9.108;2023-05-07T06:08:06;16.80;99.90
6792;DHT22;3433;48.730;9.108;2023-05-07T06:10:33;16.90;99.90
6792;DHT22;3433;48.730;9.108;2023-05-07T06:12:59;17.20;99.90
6792;DHT22;3433;48.730;9.108;2023-05-07T06:15:28;17.10;99.90
6792;DHT22;3433;48.730;9.108;2023-05-07T06:17:55;17.20;99.90
6792;DHT22;3433;48.730;9.108;2023-05-07T06:20:23;17.20;99.90
6792;DHT22;3433;48.730;9.108;2023-05-07T06:22:49;17.30;99.90
6792;DHT22;3433;48.730;9.108;2023-05-07T06:25:16;17.40;99.90
6792;DHT22;3433;48.730;9.108;2023-05-07T06:27:43;17.40;99.90
6792;DHT22;3433;48.730;9.108;2023-05-07T06:30:13;17.40;99.90
6792;DHT22;3433;48.730;9.108;2023-05-07T06:32:41;17.40;99.90
6792;DHT22;3433;48.730;9.108;2023-05-07T06:35:08;17.40;99.90
6792;DHT22;3433;48.730;9.108;2023-05-07T06:37:35;17.30;99.90
6792;DHT22;3433;48.730;9.108;2023-05-07T06:40:05;17.30;99.90
6792;DHT22;3433;48.730;9.108;2023-05-07T06:42:32;17.40;99.90
6792;DHT22;3433;48.730;9.108;2023-05-07T06:44:59;17.40;99.90
6792;DHT22;3433;48.730;9.108;2023-05-07T06:47:26;17.30;99.90
6792;DHT22;3433;48.730;9.108;2023-05-07T06:49:54;17.50;99.90
6792;DHT22;3433;48.730;9.108;2023-05-07T06:52:21;17.60;99.90
6792;DHT22;3433;48.730;9.108;2023-05-07T06:54:48;17.70;99.90
6792;DHT22;3433;48.730;9.108;2023-05-07T06:57:15;17.80;99.90
6792;DHT22;3433;48.730;9.108;2023-05-07T06:59:42;18.00;99.90
6792;DHT22;3433;48.730;9.108;2023-05-07T07:02:08;18.00;99.90
6792;DHT22;3433;48.730;9.108;2023-05-07T07:04:35;18.20;99.90
6792;DHT22;3433;48.730;9.108;2023-05-07T07:07:04;18.40;99.90
6792;DHT22;3433;48.730;9.108;2023-05-07T07:09:31;18.60;99.90
6792;DHT22;3433;48.730;9.108;2023-05-07T07:11:58;18.80;99.90
6792;DHT22;3433;48.730;9.108;2023-05-07T07:14:25;18.90;99.90
6792;DHT22;3433;48.730;9.108;2023-05-07T07:16:52;19.00;99.90
6792;DHT22;3433;48.730;9.108;2023-05-07T07:19:19;18.90;99.90
6792;DHT22;3433;48.730;9.108;2023-05-07T07:21:46;19.10;99.90
6792;DHT22;3433;48.730;9.108;2023-05-07T07:24:15;19.10;99.90
6792;DHT22;3433;48.730;9.108;2023-05-07T07:26:46;19.10;99.90
6792;DHT22;3433;48.730;9.108;2023-05-07T07:29:13;19.30;99.90
6792;DHT22;3433;48.730;9.108;2023-05-07T07:31:40;19.50;99.90
6792;DHT22;3433;48.730;9.108;2023-05-07T07:34:07;19.70;99.90
6792;DHT22;3433;48.730;9.108;2023-05-07T07:36:34;19.80;99.90
6792;DHT22;3433;48.730;9.108;2023-05-07T07:39:00;20.00;99.90
6792;DHT22;3433;48.730;9.108;2023-05-07T07:41:29;20.10;99.90
6792;DHT22;3433;48.730;9.108;2023-05-07T07:43:55;20.20;99.90
6792;DHT22;3433;48.730;9.108;2023-05-07T07:46:22;20.30;99.90
6792;DHT22;3433;48.730;9.108;2023-05-07T07:48:49;20.40;99.90
6792;DHT22;3433;48.730;9.108;2023-05-07T07:51:16;20.50;99.90
6792;DHT22;3433;48.730;9.108;2023-05-07T07:53:43;20.60;99.90
6792;DHT22;3433;48.730;9.108;2023-05-07T07:56:13;20.60;99.90
6792;DHT22;3433;48.730;9.108;2023-05-07T07:58:41;20.80;99.90
6792;DHT22;3433;48.730;9.108;2023-05-07T08:01:08;20.90;99.90
6792;DHT22;3433;48.730;9.108;2023-05-07T08:03:35;21.00;99.90
6792;DHT22;3433;48.730;9.108;2023-05-07T08:06:03;21.00;99.90
6792;DHT22;3433;48.730;9.108;2023-05-07T08:08:30;21.00;99.90
6792;DHT22;3433;48.730;9.108;2023-05-07T08:10:57;21.10;99.90
6792;DHT22;3433;48.730;9.108;2023-05-07T08:13:24;21.10;99.90
6792;DHT22;3433;48.730;9.108;2023-05-07T08:15:52;21.20;99.90
6792;DHT22;3433;48.730;9.108;2023-05-07T08:18:19;21.20;99.90
6792;DHT22;3433;48.730;9.108;2023-05-07T08:20:46;21.30;99.90
6792;DHT22;3433;48.730;9.108;2023-05-07T08:23:13;21.50;99.90
6792;DHT22;3433;48.730;9.108;2023-05-07T08:25:40;21.70;99.90
6792;DHT22;3433;48.730;9.108;2023-05-07T08:28:08;21.80;99.90
6792;DHT22;3433;48.730;9.108;2023-05-07T08:30:35;22.00;99.90
6792;DHT22;3433;48.730;9.108;2023-05-07T08:33:03;22.10;99.90
6792;DHT22;3433;48.730;9.108;2023-05-07T08:35:30;22.10;99.90
6792;DHT22;3433;48.730;9.108;2023-05-07T08:37:57;22.00;99.90
6792;DHT22;3433;48.730;9.108;2023-05-07T08:40:25;21.90;99.90
6792;DHT22;3433;48.730;9.108;2023-05-07T08:42:53;22.00;99.90
6792;DHT22;3433;48.730;9.108;2023-05-07T08:45:20;22.20;99.90
6792;DHT22;3433;48.730;9.108;2023-05-07T08:47:51;22.30;99.90
6792;DHT22;3433;48.730;9.108;2023-05-07T08:50:20;22.40;99.90
6792;DHT22;3433;48.730;9.108;2023-05-07T08:52:47;22.50;99.90
6792;DHT22;3433;48.730;9.108;2023-05-07T08:55:14;22.60;99.90
6792;DHT22;3433;48.730;9.108;2023-05-07T08:57:41;22.50;99.90
6792;DHT22;3433;48.730;9.108;2023-05-07T09:00:09;22.60;99.90
6792;DHT22;3433;48.730;9.108;2023-05-07T09:02:36;22.50;99.90
6792;DHT22;3433;48.730;9.108;2023-05-07T09:05:04;22.80;99.90
6792;DHT22;3433;48.730;9.108;2023-05-07T09:07:33;22.70;99.60
6792;DHT22;3433;48.730;9.108;2023-05-07T09:10:01;22.90;99.90
6792;DHT22;3433;48.730;9.108;2023-05-07T09:12:29;23.00;99.90
6792;DHT22;3433;48.730;9.108;2023-05-07T09:14:56;23.20;99.90
6792;DHT22;3433;48.730;9.108;2023-05-07T09:17:23;23.40;99.90
6792;DHT22;3433;48.730;9.108;2023-05-07T09:19:50;23.40;99.90
6792;DHT22;3433;48.730;9.108;2023-05-07T09:22:19;23.40;99.90
6792;DHT22;3433;48.730;9.108;2023-05-07T09:24:49;23.50;99.80
6792;DHT22;3433;48.730;9.108;2023-05-07T09:27:17;23.50;99.60
6792;DHT22;3433;48.730;9.108;2023-05-07T09:29:44;23.60;99.30
6792;DHT22;3433;48.730;9.108;2023-05-07T09:32:14;23.60;99.80
6792;DHT22;3433;48.730;9.108;2023-05-07T09:34:42;23.60;99.30
6792;DHT22;3433;48.730;9.108;2023-05-07T09:37:12;23.60;99.60
6792;DHT22;3433;48.730;9.108;2023-05-07T09:39:40;23.60;99.50
6792;DHT22;3433;48.730;9.108;2023-05-07T09:42:09;23.50;99.00
6792;DHT22;3433;48.730;9.108;2023-05-07T09:44:37;23.60;99.10
6792;DHT22;3433;48.730;9.108;2023-05-07T09:47:05;23.70;99.40
6792;DHT22;3433;48.730;9.108;2023-05-07T09:49:34;24.00;99.70
6792;DHT22;3433;48.730;9.108;2023-05-07T09:52:03;23.90;98.00
6792;DHT22;3433;48.730;9.108;2023-05-07T09:54:32;24.00;98.70
6792;DHT22;3433;48.730;9.108;2023-05-07T09:57:00;24.20;99.20
6792;DHT22;3433;48.730;9.108;2023-05-07T09:59:31;24.20;98.80
6792;DHT22;3433;48.730;9.108;2023-05-07T10:01:59;24.30;98.50
6792;DHT22;3433;48.730;9.108;2023-05-07T10:04:27;24.30;98.70
6792;DHT22;3433;48.730;9.108;2023-05-07T10:06:54;24.40;99.00
6792;DHT22;3433;48.730;9.108;2023-05-07T10:09:22;24.30;97.70
6792;DHT22;3433;48.730;9.108;2023-05-07T10:11:51;24.10;98.70
6792;DHT22;3433;48.730;9.108;2023-05-07T10:14:20;24.20;98.30
6792;DHT22;3433;48.730;9.108;2023-05-07T10:16:49;24.00;98.50
6792;DHT22;3433;48.730;9.108;2023-05-07T10:19:16;24.20;98.30
6792;DHT22;3433;48.730;9.108;2023-05-07T10:21:48;24.10;97.50
6792;DHT22;3433;48.730;9.108;2023-05-07T10:24:20;24.10;97.90
6792;DHT22;3433;48.730;9.108;2023-05-07T10:26:50;24.30;97.80
6792;DHT22;3433;48.730;9.108;2023-05-07T10:29:24;24.30;97.30
6792;DHT22;3433;48.730;9.108;2023-05-07T10:32:02;24.40;97.60
6792;DHT22;3433;48.730;9.108;2023-05-07T10:34:34;24.50;97.20
6792;DHT22;3433;48.730;9.108;2023-05-07T10:37:03;24.80;98.20
6792;DHT22;3433;48.730;9.108;2023-05-07T10:39:30;25.10;99.00
6792;DHT22;3433;48.730;9.108;2023-05-07T10:42:07;25.10;97.20
6792;DHT22;3433;48.730;9.108;2023-05-07T10:44:34;25.00;96.20
6792;DHT22;3433;48.730;9.108;2023-05-07T10:47:11;25.00;96.30
6792;DHT22;3433;48.730;9.108;2023-05-07T10:52:38;25.00;96.50
6792;DHT22;3433;48.730;9.108;2023-05-07T10:55:21;25.30;97.20
6792;DHT22;3433;48.730;9.108;2023-05-07T10:57:50;25.30;95.60
6792;DHT22;3433;48.730;9.108;2023-05-07T11:00:42;25.40;96.10
6792;DHT22;3433;48.730;9.108;2023-05-07T11:03:11;25.50;95.80
6792;DHT22;3433;48.730;9.108;2023-05-07T11:05:40;25.50;95.10
6792;DHT22;3433;48.730;9.108;2023-05-07T11:08:08;25.50;95.80
6792;DHT22;3433;48.730;9.108;2023-05-07T11:10:49;25.50;95.40
6792;DHT22;3433;48.730;9.108;2023-05-07T11:13:17;24.90;94.50
6792;DHT22;3433;48.730;9.108;2023-05-07T11:15:44;24.80;95.10
6792;DHT22;3433;48.730;9.108;2023-05-07T11:18:14;24.70;94.60
6792;DHT22;3433;48.730;9.108;2023-05-07T11:21:02;24.50;95.90
6792;DHT22;3433;48.730;9.108;2023-05-07T11:26:47;24.20;95.10
6792;DHT22;3433;48.730;9.108;2023-05-07T11:29:16;24.00;95.70
6792;DHT22;3433;48.730;9.108;2023-05-07T11:31:43;23.90;95.30
6792;DHT22;3433;48.730;9.108;2023-05-07T11:34:12;23.80;95.50
6792;DHT22;3433;48.730;9.108;2023-05-07T11:36:43;23.60;95.30
6792;DHT22;3433;48.730;9.108;2023-05-07T11:39:26;23.60;95.60
6792;DHT22;3433;48.730;9.108;2023-05-07T11:41:53;23.50;96.00
6792;DHT22;3433;48.730;9.108;2023-05-07T11:44:20;23.50;96.20
6792;DHT22;3433;48.730;9.108;2023-05-07T11:46:46;23.50;96.40
6792;DHT22;3433;48.730;9.108;2023-05-07T11:49:15;23.30;96.00
6792;DHT22;3433;48.730;9.108;2023-05-07T11:51:42;23.30;96.40
6792;DHT22;3433;48.730;9.108;2023-05-07T11:54:09;23.30;96.50
6792;DHT22;3433;48.730;9.108;2023-05-07T11:56:37;23.20;96.70
6792;DHT22;3433;48.730;9.108;2023-05-07T11:59:04;23.10;96.90
6792;DHT22;3433;48.730;9.108;2023-05-07T12:01:31;23.20;97.50
6792;DHT22;3433;48.730;9.108;2023-05-07T12:03:58;23.10;98.20
6792;DHT22;3433;48.730;9.108;2023-05-07T12:06:30;23.10;98.60
6792;DHT22;3433;48.730;9.108;2023-05-07T12:08:57;23.00;98.70
6792;DHT22;3433;48.730;9.108;2023-05-07T12:11:25;22.90;98.60
6792;DHT22;3433;48.730;9.108;2023-05-07T12:13:54;22.80;98.80
6792;DHT22;3433;48.730;9.108;2023-05-07T12:16:21;22.80;98.70
6792;DHT22;3433;48.730;9.108;2023-05-07T12:18:48;22.60;98.80
6792;DHT22;3433;48.730;9.108;2023-05-07T12:21:18;22.50;98.70
6792;DHT22;3433;48.730;9.108;2023-05-07T12:23:47;22.30;99.00
6792;DHT22;3433;48.730;9.108;2023-05-07T12:26:14;22.10;99.10
6792;DHT22;3433;48.730;9.108;2023-05-07T12:28:41;21.90;98.40
6792;DHT22;3433;48.730;9.108;2023-05-07T12:31:08;21.90;98.70
6792;DHT22;3433;48.730;9.108;2023-05-07T12:33:35;21.90;98.80
6792;DHT22;3433;48.730;9.108;2023-05-07T12:36:06;21.80;98.90
6792;DHT22;3433;48.730;9.108;2023-05-07T12:38:37;21.60;98.80
6792;DHT22;3433;48.730;9.108;2023-05-07T12:41:08;21.50;99.00
6792;DHT22;3433;48.730;9.108;2023-05-07T12:43:35;21.60;99.10
6792;DHT22;3433;48.730;9.108;2023-05-07T12:46:04;21.50;99.30
6792;DHT22;3433;48.730;9.108;2023-05-07T12:48:32;21.40;99.90
6792;DHT22;3433;48.730;9.108;2023-05-07T12:51:00;21.20;99.60
6792;DHT22;3433;48.730;9.108;2023-05-07T12:53:28;21.20;99.80
6792;DHT22;3433;48.730;9.108;2023-05-07T12:55:56;21.10;99.70
6792;DHT22;3433;48.730;9.108;2023-05-07T12:58:27;21.00;99.80
6792;DHT22;3433;48.730;9.108;2023-05-07T13:00:55;20.90;99.60
6792;DHT22;3433;48.730;9.108;2023-05-07T13:03:26;20.80;99.70
6792;DHT22;3433;48.730;9.108;2023-05-07T13:05:56;20.50;98.00
6792;DHT22;3433;48.730;9.108;2023-05-07T13:08:28;20.20;98.20
6792;DHT22;3433;48.730;9.108;2023-05-07T13:10:56;20.20;98.70
6792;DHT22;3433;48.730;9.108;2023-05-07T13:13:23;20.30;98.90
6792;DHT22;3433;48.730;9.108;2023-05-07T13:15:51;20.20;99.30
6792;DHT22;3433;48.730;9.108;2023-05-07T13:18:18;20.20;99.70
6792;DHT22;3433;48.730;9.108;2023-05-07T13:20:45;20.00;99.70
6792;DHT22;3433;48.730;9.108;2023-05-07T13:23:12;20.00;98.90
6792;DHT22;3433;48.730;9.108;2023-05-07T13:25:39;19.80;99.10
6792;DHT22;3433;48.730;9.108;2023-05-07T13:28:05;19.80;99.40
6792;DHT22;3433;48.730;9.108;2023-05-07T13:30:32;19.80;99.90
6792;DHT22;3433;48.730;9.108;2023-05-07T13:33:01;19.80;99.80
6792;DHT22;3433;48.730;9.108;2023-05-07T13:35:28;19.80;99.90
6792;DHT22;3433;48.730;9.108;2023-05-07T13:37:54;19.80;99.90
6792;DHT22;3433;48.730;9.108;2023-05-07T13:40:22;19.60;99.90
6792;DHT22;3433;48.730;9.108;2023-05-07T13:42:49;19.60;99.90
6792;DHT22;3433;48.730;9.108;2023-05-07T13:45:17;19.40;99.90
6792;DHT22;3433;48.730;9.108;2023-05-07T13:47:44;19.40;99.90
6792;DHT22;3433;48.730;9.108;2023-05-07T13:50:15;19.10;99.90
6792;DHT22;3433;48.730;9.108;2023-05-07T13:52:43;19.10;99.90
6792;DHT22;3433;48.730;9.108;2023-05-07T13:55:16;18.60;99.90
6792;DHT22;3433;48.730;9.108;2023-05-07T13:57:43;18.50;99.90
6792;DHT22;3433;48.730;9.108;2023-05-07T14:00:11;18.60;99.90
6792;DHT22;3433;48.730;9.108;2023-05-07T14:02:38;18.50;99.90
6792;DHT22;3433;48.730;9.108;2023-05-07T14:05:06;18.30;99.90
6792;DHT22;3433;48.730;9.108;2023-05-07T14:07:36;18.20;99.90
6792;DHT22;3433;48.730;9.108;2023-05-07T14:10:03;18.10;99.90
6792;DHT22;3433;48.730;9.108;2023-05-07T14:12:40;18.10;99.90
6792;DHT22;3433;48.730;9.108;2023-05-07T14:15:08;18.00;99.90
6792;DHT22;3433;48.730;9.108;2023-05-07T14:17:36;17.80;99.90
6792;DHT22;3433;48.730;9.108;2023-05-07T14:20:03;17.80;99.90
6792;DHT22;3433;48.730;9.108;2023-05-07T14:22:31;17.80;99.90
6792;DHT22;3433;48.730;9.108;2023-05-07T14:25:00;17.70;99.90
6792;DHT22;3433;48.730;9.108;2023-05-07T14:27:27;17.50;99.90
6792;DHT22;3433;48.730;9.108;2023-05-07T14:29:54;17.50;99.90
6792;DHT22;3433;48.730;9.108;2023-05-07T14:32:21;17.50;99.90
6792;DHT22;3433;48.730;9.108;2023-05-07T14:34:48;17.40;99.90
6792;DHT22;3433;48.730;9.108;2023-05-07T14:37:15;17.40;99.90
6792;DHT22;3433;48.730;9.108;2023-05-07T14:39:45;17.50;99.90
6792;DHT22;3433;48.730;9.108;2023-05-07T14:42:18;17.50;99.90
6792;DHT22;3433;48.730;9.108;2023-05-07T14:44:49;17.50;99.90
6792;DHT22;3433;48.730;9.108;2023-05-07T14:47:21;17.60;99.90
6792;DHT22;3433;48.730;9.108;2023-05-07T14:50:14;17.60;99.90
6792;DHT22;3433;48.730;9.108;2023-05-07T14:52:44;17.60;99.90
6792;DHT22;3433;48.730;9.108;2023-05-07T14:55:12;17.60;99.90
6792;DHT22;3433;48.730;9.108;2023-05-07T14:57:52;17.60;99.90
6792;DHT22;3433;48.730;9.108;2023-05-07T15:00:20;17.60;99.90
6792;DHT22;3433;48.730;9.108;2023-05-07T15:02:50;17.70;99.90
6792;DHT22;3433;48.730;9.108;2023-05-07T15:05:21;17.70;99.90
6792;DHT22;3433;48.730;9.108;2023-05-07T15:07:48;17.70;99.90
6792;DHT22;3433;48.730;9.108;2023-05-07T15:10:15;17.80;99.90
6792;DHT22;3433;48.730;9.108;2023-05-07T15:12:42;17.80;99.90
6792;DHT22;3433;48.730;9.108;2023-05-07T15:15:11;17.80;99.90
6792;DHT22;3433;48.730;9.108;2023-05-07T15:17:38;17.90;99.90
6792;DHT22;3433;48.730;9.108;2023-05-07T15:20:06;17.90;99.90
6792;DHT22;3433;48.730;9.108;2023-05-07T15:22:33;18.00;99.90
6792;DHT22;3433;48.730;9.108;2023-05-07T15:25:01;18.00;99.90
6792;DHT22;3433;48.730;9.108;2023-05-07T15:27:29;18.00;99.90
6792;DHT22;3433;48.730;9.108;2023-05-07T15:29:56;18.00;99.90
6792;DHT22;3433;48.730;9.108;2023-05-07T15:32:24;18.10;99.90
6792;DHT22;3433;48.730;9.108;2023-05-07T15:34:51;18.10;99.90
6792;DHT22;3433;48.730;9.108;2023-05-07T15:37:18;18.20;99.90
6792;DHT22;3433;48.730;9.108;2023-05-07T15:39:45;18.20;99.90
6792;DHT22;3433;48.730;9.108;2023-05-07T15:42:12;18.30;99.90
6792;DHT22;3433;48.730;9.108;2023-05-07T15:44:39;18.40;99.90
6792;DHT22;3433;48.730;9.108;2023-05-07T15:47:06;18.40;99.90
6792;DHT22;3433;48.730;9.108;2023-05-07T15:49:35;18.40;99.90
6792;DHT22;3433;48.730;9.108;2023-05-07T15:52:02;18.40;99.90
6792;DHT22;3433;48.730;9.108;2023-05-07T15:54:29;18.40;99.90
6792;DHT22;3433;48.730;9.108;2023-05-07T15:56:56;18.50;99.90
6792;DHT22;3433;48.730;9.108;2023-05-07T15:59:23;18.50;99.90
6792;DHT22;3433;48.730;9.108;2023-05-07T16:01:50;18.50;99.90
6792;DHT22;3433;48.730;9.108;2023-05-07T16:04:17;18.50;99.90
6792;DHT22;3433;48.730;9.108;2023-05-07T16:06:46;18.50;99.90
6792;DHT22;3433;48.730;9.108;2023-05-07T16:09:13;18.50;99.90
6792;DHT22;3433;48.730;9.108;2023-05-07T16:11:41;18.60;99.90
6792;DHT22;3433;48.730;9.108;2023-05-07T16:14:08;18.60;99.90